Time;durP1;ratioP1;P1;durP2;ratioP2;P2;SDS_P1;SDS_P2;PMS_P1;PMS_P2;Temp;Humidity;BMP_temperature;BMP_pressure;BME280_temperature;BME280_humidity;BME280_pressure;Samples;Min_cycle;Max_cycle;Signal;HPM_P1;HPM_P2
2022/03/08 00:00:40;;;;;;;;;;;20.40;37.70;;;;;;5040600;28;19925;-42
2022/03/08 00:03:07;;;;;;;;;;;20.30;37.60;;;;;;5059014;28;19924;-42
2022/03/08 00:05:34;;;;;;;;;;;20.30;37.60;;;;;;5038417;28;20078;-43
2022/03/08 00:08:02;;;;;;;;;;;20.30;37.60;;;;;;5048508;28;19924;-46
2022/03/08 00:10:29;;;;;;;;;;;20.30;37.60;;;;;;5048789;28;20402;-48
2022/03/08 00:12:55;;;;;;;;;;;20.30;37.70;;;;;;5040633;28;20046;-45
2022/03/08 00:15:23;;;;;;;;;;;20.30;37.70;;;;;;5056962;28;19925;-46
2022/03/08 00:17:50;;;;;;;;;;;20.30;37.70;;;;;;5051555;28;19920;-48
2022/03/08 00:20:17;;;;;;;;;;;20.30;37.70;;;;;;5045382;28;20427;-46
2022/03/08 00:22:44;;;;;;;;;;;20.30;37.70;;;;;;5045839;28;20346;-42
2022/03/08 00:25:13;;;;;;;;;;;20.30;37.70;;;;;;5041427;28;20404;-46
2022/03/08 00:27:42;;;;;;;;;;;20.30;37.70;;;;;;5051154;28;19928;-47
2022/03/08 00:30:09;;;;;;;;;;;20.30;37.80;;;;;;5045395;28;19924;-44
2022/03/08 00:32:36;;;;;;;;;;;20.30;37.80;;;;;;5053317;28;19928;-44
2022/03/08 00:35:03;;;;;;;;;;;20.30;37.80;;;;;;5052591;28;19921;-45
2022/03/08 00:37:29;;;;;;;;;;;20.30;37.80;;;;;;5069245;28;19981;-46
2022/03/08 00:39:56;;;;;;;;;;;20.30;37.80;;;;;;5045590;28;19967;-44
2022/03/08 00:42:24;;;;;;;;;;;20.30;37.80;;;;;;5071096;28;19928;-45
2022/03/08 00:44:51;;;;;;;;;;;20.30;37.80;;;;;;5049581;28;19946;-47
2022/03/08 00:47:18;;;;;;;;;;;20.30;37.80;;;;;;5067256;28;20184;-44
2022/03/08 00:49:44;;;;;;;;;;;20.30;37.90;;;;;;5044232;28;20011;-46
2022/03/08 00:52:11;;;;;;;;;;;20.30;37.90;;;;;;5051881;28;19928;-47
2022/03/08 00:54:38;;;;;;;;;;;20.30;37.90;;;;;;5068717;28;20285;-44
2022/03/08 00:57:05;;;;;;;;;;;20.30;37.90;;;;;;5057147;28;19921;-45
2022/03/08 00:59:33;;;;;;;;;;;20.30;37.90;;;;;;5035334;28;20368;-44
2022/03/08 01:02:00;;;;;;;;;;;20.30;37.90;;;;;;5038701;28;19932;-44
2022/03/08 01:04:26;;;;;;;;;;;20.30;37.90;;;;;;5045824;28;19924;-47
2022/03/08 01:06:55;;;;;;;;;;;20.30;37.90;;;;;;5043043;28;19920;-43
2022/03/08 01:09:21;;;;;;;;;;;20.30;37.90;;;;;;5041895;28;19925;-45
2022/03/08 01:11:48;;;;;;;;;;;20.30;37.90;;;;;;5052739;28;20007;-44
2022/03/08 01:14:15;;;;;;;;;;;20.30;37.90;;;;;;5042563;28;19921;-48
2022/03/08 01:16:43;;;;;;;;;;;20.30;37.90;;;;;;5035481;28;20336;-44
2022/03/08 01:19:10;;;;;;;;;;;20.30;37.90;;;;;;5039411;28;19931;-46
2022/03/08 01:21:37;;;;;;;;;;;20.30;38.00;;;;;;5048456;28;19925;-43
2022/03/08 01:24:05;;;;;;;;;;;20.30;38.00;;;;;;5046656;28;19921;-46
2022/03/08 01:26:32;;;;;;;;;;;20.30;38.00;;;;;;5064514;28;20162;-47
2022/03/08 01:28:59;;;;;;;;;;;20.30;38.00;;;;;;5052496;28;19921;-46
2022/03/08 01:31:25;;;;;;;;;;;20.30;38.00;;;;;;5051065;28;19924;-45
2022/03/08 01:33:54;;;;;;;;;;;20.30;38.00;;;;;;5068805;28;19925;-48
2022/03/08 01:36:21;;;;;;;;;;;20.30;38.00;;;;;;5033055;28;20350;-46
2022/03/08 01:38:48;;;;;;;;;;;20.30;38.00;;;;;;5052554;28;19960;-45
2022/03/08 01:41:14;;;;;;;;;;;20.30;38.00;;;;;;5050996;28;19977;-44
2022/03/08 01:43:41;;;;;;;;;;;20.30;38.00;;;;;;5069044;28;20342;-45
2022/03/08 01:46:08;;;;;;;;;;;20.30;38.00;;;;;;5064725;28;20445;-43
2022/03/08 01:48:34;;;;;;;;;;;20.30;38.00;;;;;;5062801;28;19920;-43
2022/03/08 01:51:02;;;;;;;;;;;20.30;38.00;;;;;;5058166;28;19921;-44
2022/03/08 01:53:29;;;;;;;;;;;20.30;38.00;;;;;;5051180;28;19921;-47
2022/03/08 01:55:55;;;;;;;;;;;20.30;38.00;;;;;;5046908;28;19987;-45
2022/03/08 01:58:22;;;;;;;;;;;20.30;38.00;;;;;;5035698;28;19979;-44
2022/03/08 02:00:49;;;;;;;;;;;20.30;38.00;;;;;;5049390;28;20007;-44
2022/03/08 02:03:16;;;;;;;;;;;20.30;38.00;;;;;;5051180;28;20253;-43
2022/03/08 02:05:43;;;;;;;;;;;20.30;38.00;;;;;;5045187;28;20350;-43
2022/03/08 02:08:11;;;;;;;;;;;20.30;38.00;;;;;;5051879;28;20185;-47
2022/03/08 02:10:37;;;;;;;;;;;20.30;38.00;;;;;;5046064;28;19924;-45
2022/03/08 02:13:04;;;;;;;;;;;20.40;38.10;;;;;;5045225;28;19956;-45
2022/03/08 02:15:31;;;;;;;;;;;20.30;38.10;;;;;;5053864;28;19921;-43
2022/03/08 02:17:58;;;;;;;;;;;20.30;38.10;;;;;;5034713;28;20191;-45
2022/03/08 02:20:25;;;;;;;;;;;20.30;38.10;;;;;;5045409;28;19951;-46
2022/03/08 02:22:53;;;;;;;;;;;20.30;38.10;;;;;;5046478;28;20251;-45
2022/03/08 02:25:20;;;;;;;;;;;20.30;38.10;;;;;;5033253;28;19928;-47
2022/03/08 02:27:48;;;;;;;;;;;20.30;38.10;;;;;;5043585;28;20384;-47
2022/03/08 02:30:15;;;;;;;;;;;20.30;38.10;;;;;;5040668;28;20449;-49
2022/03/08 02:32:41;;;;;;;;;;;20.30;38.10;;;;;;5057368;28;20352;-44
2022/03/08 02:35:09;;;;;;;;;;;20.30;38.10;;;;;;5032139;28;20380;-50
2022/03/08 02:37:38;;;;;;;;;;;20.30;38.10;;;;;;5061573;28;19920;-49
2022/03/08 02:40:08;;;;;;;;;;;20.40;38.20;;;;;;5041811;28;19927;-47
2022/03/08 02:42:35;;;;;;;;;;;20.30;38.20;;;;;;5049242;28;19959;-49
2022/03/08 02:45:02;;;;;;;;;;;20.30;38.10;;;;;;5033704;28;19931;-47
2022/03/08 02:47:28;;;;;;;;;;;20.30;38.20;;;;;;5057866;28;20016;-45
2022/03/08 02:49:55;;;;;;;;;;;20.30;38.20;;;;;;5063241;28;19952;-50
2022/03/08 02:52:22;;;;;;;;;;;20.40;38.30;;;;;;5038999;28;19960;-47
2022/03/08 02:54:48;;;;;;;;;;;20.30;38.20;;;;;;5049450;28;19921;-45
2022/03/08 02:57:16;;;;;;;;;;;20.30;38.20;;;;;;5068232;28;20371;-44
2022/03/08 02:59:43;;;;;;;;;;;20.30;38.20;;;;;;5067682;28;19990;-45
2022/03/08 03:02:10;;;;;;;;;;;20.30;38.20;;;;;;5059273;28;19970;-47
2022/03/08 03:04:37;;;;;;;;;;;20.30;38.20;;;;;;5048099;28;19926;-46
2022/03/08 03:07:04;;;;;;;;;;;20.30;38.20;;;;;;5049383;28;19925;-44
2022/03/08 03:09:31;;;;;;;;;;;20.40;38.30;;;;;;5053677;28;19970;-44
2022/03/08 03:11:57;;;;;;;;;;;20.30;38.20;;;;;;5049647;28;19924;-43
2022/03/08 03:14:25;;;;;;;;;;;20.30;38.20;;;;;;5063510;28;20043;-48
2022/03/08 03:16:52;;;;;;;;;;;20.30;38.20;;;;;;5045979;28;20027;-46
2022/03/08 03:19:19;;;;;;;;;;;20.30;38.20;;;;;;5065300;28;20036;-46
2022/03/08 03:21:46;;;;;;;;;;;20.30;38.20;;;;;;5047272;28;19963;-45
2022/03/08 03:24:13;;;;;;;;;;;20.30;38.20;;;;;;5044060;28;19925;-46
2022/03/08 03:26:39;;;;;;;;;;;20.30;38.20;;;;;;5040517;28;19978;-43
2022/03/08 03:29:06;;;;;;;;;;;20.30;38.30;;;;;;5049813;28;19986;-44
2022/03/08 03:31:34;;;;;;;;;;;20.30;38.20;;;;;;5048959;28;19921;-44
2022/03/08 03:34:01;;;;;;;;;;;20.30;38.30;;;;;;5066893;28;19928;-45
2022/03/08 03:36:28;;;;;;;;;;;20.30;38.20;;;;;;5051946;28;19920;-44
2022/03/08 03:38:54;;;;;;;;;;;20.30;38.30;;;;;;5043243;28;19920;-48
2022/03/08 03:41:21;;;;;;;;;;;20.40;38.40;;;;;;5066669;28;20397;-45
2022/03/08 03:43:48;;;;;;;;;;;20.30;38.30;;;;;;5043875;28;20369;-46
2022/03/08 03:46:16;;;;;;;;;;;20.30;38.30;;;;;;5031450;28;19935;-46
2022/03/08 03:48:44;;;;;;;;;;;20.30;38.30;;;;;;5041610;28;20014;-42
2022/03/08 03:51:11;;;;;;;;;;;20.30;38.30;;;;;;5049077;28;19924;-44
2022/03/08 03:53:38;;;;;;;;;;;20.30;38.30;;;;;;5064051;28;19932;-46
2022/03/08 03:56:05;;;;;;;;;;;20.30;38.30;;;;;;5048369;28;20164;-42
2022/03/08 03:58:32;;;;;;;;;;;20.30;38.30;;;;;;5051857;28;20156;-43
2022/03/08 04:00:59;;;;;;;;;;;20.30;38.30;;;;;;5048414;28;19924;-48
2022/03/08 04:03:25;;;;;;;;;;;20.30;38.30;;;;;;5036963;28;20311;-43
2022/03/08 04:05:54;;;;;;;;;;;20.30;38.30;;;;;;5064973;28;19921;-43
2022/03/08 04:08:21;;;;;;;;;;;20.30;38.30;;;;;;5046214;28;19973;-46
2022/03/08 04:10:48;;;;;;;;;;;20.30;38.30;;;;;;5049159;28;20007;-46
2022/03/08 04:13:14;;;;;;;;;;;20.30;38.30;;;;;;5059585;28;19939;-49
2022/03/08 04:15:41;;;;;;;;;;;20.30;38.30;;;;;;5065389;28;19924;-44
2022/03/08 04:18:08;;;;;;;;;;;20.30;38.30;;;;;;5039302;28;19963;-45
2022/03/08 04:20:35;;;;;;;;;;;20.30;38.30;;;;;;5066476;28;20384;-47
2022/03/08 04:23:03;;;;;;;;;;;20.30;38.30;;;;;;5049489;28;19929;-44
2022/03/08 04:25:30;;;;;;;;;;;20.30;38.30;;;;;;5043760;28;19951;-45
2022/03/08 04:27:57;;;;;;;;;;;20.30;38.30;;;;;;5064836;28;20408;-45
2022/03/08 04:30:23;;;;;;;;;;;20.30;38.30;;;;;;5034705;28;19975;-44
2022/03/08 04:32:50;;;;;;;;;;;20.40;38.40;;;;;;5050320;28;20015;-43
2022/03/08 04:35:17;;;;;;;;;;;20.30;38.30;;;;;;5066462;28;20015;-45
2022/03/08 04:37:44;;;;;;;;;;;20.30;38.30;;;;;;5039614;28;19928;-44
2022/03/08 04:40:12;;;;;;;;;;;20.40;38.40;;;;;;5049184;28;19924;-42
2022/03/08 04:42:39;;;;;;;;;;;20.30;38.30;;;;;;5036548;28;20165;-47
2022/03/08 04:45:06;;;;;;;;;;;20.30;38.30;;;;;;5049642;28;20389;-42
2022/03/08 04:47:34;;;;;;;;;;;20.30;38.40;;;;;;5041858;28;19952;-45
2022/03/08 04:50:01;;;;;;;;;;;20.30;38.40;;;;;;5047696;28;19988;-42
2022/03/08 04:52:27;;;;;;;;;;;20.30;38.40;;;;;;5045822;28;19920;-42
2022/03/08 04:54:54;;;;;;;;;;;20.30;38.40;;;;;;5035265;28;19955;-48
2022/03/08 04:57:22;;;;;;;;;;;20.30;38.40;;;;;;5035427;28;19932;-45
2022/03/08 04:59:49;;;;;;;;;;;20.30;38.40;;;;;;5055675;28;20387;-44
2022/03/08 05:02:15;;;;;;;;;;;20.30;38.40;;;;;;5040654;28;20019;-42
2022/03/08 05:04:42;;;;;;;;;;;20.30;38.40;;;;;;5044825;28;19931;-43
2022/03/08 05:07:09;;;;;;;;;;;20.30;38.40;;;;;;5050310;28;19925;-45
2022/03/08 05:09:35;;;;;;;;;;;20.30;38.40;;;;;;5066303;28;19925;-44
2022/03/08 05:12:02;;;;;;;;;;;20.30;38.40;;;;;;5048384;28;19963;-42
2022/03/08 05:14:31;;;;;;;;;;;20.40;38.50;;;;;;5040378;28;19920;-45
2022/03/08 05:16:58;;;;;;;;;;;20.30;38.40;;;;;;5059876;28;19920;-45
2022/03/08 05:19:24;;;;;;;;;;;20.30;38.40;;;;;;5031700;28;19964;-44
2022/03/08 05:21:51;;;;;;;;;;;20.30;38.40;;;;;;5038922;28;20353;-42
2022/03/08 05:24:18;;;;;;;;;;;20.30;38.40;;;;;;5030146;28;19948;-44
2022/03/08 05:26:45;;;;;;;;;;;20.30;38.40;;;;;;5044513;28;19935;-43
2022/03/08 05:29:12;;;;;;;;;;;20.30;38.40;;;;;;5032671;28;20011;-47
2022/03/08 05:31:40;;;;;;;;;;;20.30;38.40;;;;;;5044857;28;19933;-43
2022/03/08 05:34:07;;;;;;;;;;;20.30;38.50;;;;;;5037618;28;20004;-44
2022/03/08 05:36:34;;;;;;;;;;;20.30;38.40;;;;;;5056373;28;19971;-42
2022/03/08 05:39:01;;;;;;;;;;;20.30;38.40;;;;;;5051474;28;19920;-46
2022/03/08 05:41:27;;;;;;;;;;;20.30;38.50;;;;;;5047532;28;20185;-44
2022/03/08 05:43:54;;;;;;;;;;;20.30;38.40;;;;;;5062145;28;19963;-44
2022/03/08 05:46:21;;;;;;;;;;;20.30;38.50;;;;;;5055356;28;19960;-43
2022/03/08 05:48:49;;;;;;;;;;;20.30;38.50;;;;;;5036938;28;19925;-44
2022/03/08 05:51:16;;;;;;;;;;;20.30;38.50;;;;;;5058419;28;20401;-42
2022/03/08 05:53:43;;;;;;;;;;;20.30;38.50;;;;;;5040864;28;20412;-42
2022/03/08 05:56:10;;;;;;;;;;;20.30;38.50;;;;;;5046727;28;20393;-44
2022/03/08 05:58:37;;;;;;;;;;;20.30;38.50;;;;;;5038649;28;19921;-42
2022/03/08 06:01:04;;;;;;;;;;;20.30;38.50;;;;;;5040372;28;20001;-45
2022/03/08 06:03:30;;;;;;;;;;;20.30;38.50;;;;;;5047552;28;20354;-44
2022/03/08 06:05:59;;;;;;;;;;;20.30;38.50;;;;;;5055332;28;20010;-49
2022/03/08 06:08:25;;;;;;;;;;;20.30;38.50;;;;;;5043575;28;20448;-43
2022/03/08 06:10:52;;;;;;;;;;;20.30;38.50;;;;;;5044363;28;19931;-44
2022/03/08 06:13:19;;;;;;;;;;;20.30;38.50;;;;;;5049840;28;19975;-46
2022/03/08 06:15:46;;;;;;;;;;;20.30;38.50;;;;;;5052370;28;20373;-42
2022/03/08 06:18:13;;;;;;;;;;;20.30;38.50;;;;;;5037890;28;19929;-45
2022/03/08 06:20:41;;;;;;;;;;;20.30;38.50;;;;;;5059513;28;19921;-42
2022/03/08 06:23:09;;;;;;;;;;;20.30;38.50;;;;;;5041797;28;19932;-46
2022/03/08 06:25:36;;;;;;;;;;;20.30;38.50;;;;;;5057231;28;20413;-43
2022/03/08 06:28:03;;;;;;;;;;;20.30;38.50;;;;;;5056705;28;20307;-42
2022/03/08 06:30:30;;;;;;;;;;;20.30;38.50;;;;;;5039900;28;19932;-45
2022/03/08 06:32:57;;;;;;;;;;;20.30;38.50;;;;;;5049745;28;19921;-45
2022/03/08 06:35:23;;;;;;;;;;;20.30;38.50;;;;;;5031839;28;20019;-42
2022/03/08 06:37:53;;;;;;;;;;;20.30;38.50;;;;;;5034977;28;19925;-46
2022/03/08 06:40:21;;;;;;;;;;;20.30;38.50;;;;;;5034087;28;20026;-45
2022/03/08 06:42:49;;;;;;;;;;;20.30;38.50;;;;;;5034811;28;19927;-45
2022/03/08 06:45:16;;;;;;;;;;;20.30;38.60;;;;;;5035341;28;20015;-46
2022/03/08 06:47:45;;;;;;;;;;;20.30;38.50;;;;;;5034777;28;20031;-45
2022/03/08 06:50:11;;;;;;;;;;;20.30;38.50;;;;;;5034059;28;19929;-45
2022/03/08 06:52:38;;;;;;;;;;;20.30;38.50;;;;;;5030632;28;19932;-43
2022/03/08 06:55:05;;;;;;;;;;;20.30;38.50;;;;;;5035323;28;19928;-45
2022/03/08 06:57:33;;;;;;;;;;;20.30;38.50;;;;;;5032224;28;20015;-46
2022/03/08 07:00:02;;;;;;;;;;;20.30;38.50;;;;;;5052370;28;19921;-47
2022/03/08 07:02:29;;;;;;;;;;;20.30;38.50;;;;;;5031822;28;19924;-44
2022/03/08 07:04:55;;;;;;;;;;;20.30;38.50;;;;;;5039597;28;19970;-49
2022/03/08 07:07:22;;;;;;;;;;;20.30;38.50;;;;;;5057080;28;19924;-44
2022/03/08 07:09:49;;;;;;;;;;;20.30;38.50;;;;;;5031751;28;19983;-43
2022/03/08 07:12:16;;;;;;;;;;;20.30;38.50;;;;;;5038476;28;19929;-42
2022/03/08 07:14:46;;;;;;;;;;;20.30;38.50;;;;;;5030419;28;19974;-60
2022/03/08 07:17:13;;;;;;;;;;;20.30;38.50;;;;;;5034468;28;20015;-54
2022/03/08 07:19:40;;;;;;;;;;;20.30;38.40;;;;;;5036056;28;20409;-60
2022/03/08 07:22:07;;;;;;;;;;;20.30;37.80;;;;;;5034743;28;19927;-49
2022/03/08 07:24:37;;;;;;;;;;;20.30;37.00;;;;;;5037856;28;19924;-56
2022/03/08 07:27:04;;;;;;;;;;;20.30;36.30;;;;;;5056598;28;20023;-56
2022/03/08 07:29:31;;;;;;;;;;;20.20;35.70;;;;;;5027385;28;19924;-60
2022/03/08 07:32:00;;;;;;;;;;;20.20;35.20;;;;;;5036277;28;19928;-60
2022/03/08 07:34:26;;;;;;;;;;;20.20;35.10;;;;;;5039355;28;19924;-49
2022/03/08 07:36:53;;;;;;;;;;;20.20;34.90;;;;;;5039905;28;19927;-42
2022/03/08 07:39:20;;;;;;;;;;;20.20;35.10;;;;;;5058458;28;20065;-42
2022/03/08 07:41:47;;;;;;;;;;;20.10;35.30;;;;;;5042165;28;19920;-42
2022/03/08 07:44:14;;;;;;;;;;;20.10;35.70;;;;;;5041467;28;20313;-41
2022/03/08 07:46:40;;;;;;;;;;;20.10;35.90;;;;;;5042053;28;19973;-44
2022/03/08 07:49:08;;;;;;;;;;;20.10;36.20;;;;;;5037526;28;19921;-42
2022/03/08 07:51:35;;;;;;;;;;;20.10;36.40;;;;;;5062763;28;19972;-42
2022/03/08 07:54:06;;;;;;;;;;;20.20;36.60;;;;;;5045455;28;19920;-45
2022/03/08 07:56:33;;;;;;;;;;;20.10;36.70;;;;;;5063867;28;20242;-42
2022/03/08 07:59:00;;;;;;;;;;;20.20;36.90;;;;;;5065156;28;19928;-43
2022/03/08 08:01:26;;;;;;;;;;;20.20;37.00;;;;;;5039950;28;19959;-42
2022/03/08 08:03:53;;;;;;;;;;;20.20;37.00;;;;;;5055431;28;20357;-45
2022/03/08 08:06:22;;;;;;;;;;;20.20;37.10;;;;;;5043463;28;19925;-42
2022/03/08 08:08:48;;;;;;;;;;;20.20;37.20;;;;;;5060948;28;19921;-43
2022/03/08 08:11:15;;;;;;;;;;;20.20;37.30;;;;;;5044961;28;19991;-42
2022/03/08 08:13:42;;;;;;;;;;;20.20;37.30;;;;;;5045511;28;19943;-42
2022/03/08 08:16:09;;;;;;;;;;;20.30;37.40;;;;;;5047667;28;19927;-44
2022/03/08 08:18:39;;;;;;;;;;;20.30;37.50;;;;;;5042893;28;19929;-44
2022/03/08 08:21:06;;;;;;;;;;;20.30;37.60;;;;;;5040367;28;20366;-43
2022/03/08 08:23:34;;;;;;;;;;;20.30;37.60;;;;;;5042242;28;19924;-46
2022/03/08 08:26:00;;;;;;;;;;;20.30;37.60;;;;;;5038701;28;19991;-42
2022/03/08 08:28:28;;;;;;;;;;;20.30;37.70;;;;;;5040889;28;19942;-43
2022/03/08 08:30:54;;;;;;;;;;;20.30;37.70;;;;;;5043089;28;19998;-44
2022/03/08 08:33:21;;;;;;;;;;;20.30;37.70;;;;;;5045136;28;19985;-42
2022/03/08 08:35:48;;;;;;;;;;;20.30;37.80;;;;;;5061705;28;20031;-46
2022/03/08 08:38:14;;;;;;;;;;;20.30;37.80;;;;;;5044982;28;19927;-43
2022/03/08 08:40:46;;;;;;;;;;;20.30;37.80;;;;;;5067940;28;19927;-41
2022/03/08 08:43:13;;;;;;;;;;;20.30;37.80;;;;;;5042387;28;19970;-43
2022/03/08 08:45:40;;;;;;;;;;;20.30;37.90;;;;;;5042584;28;19942;-43
2022/03/08 08:48:07;;;;;;;;;;;20.30;37.90;;;;;;5043071;28;19978;-43
2022/03/08 08:50:33;;;;;;;;;;;20.40;38.00;;;;;;5047885;28;19920;-44
2022/03/08 08:53:00;;;;;;;;;;;20.30;38.00;;;;;;5064886;28;20374;-44
2022/03/08 08:55:27;;;;;;;;;;;20.40;38.00;;;;;;5046481;28;19920;-45
2022/03/08 08:57:55;;;;;;;;;;;20.40;38.00;;;;;;5059460;28;20019;-48
2022/03/08 09:00:22;;;;;;;;;;;20.40;38.10;;;;;;5050662;28;19986;-47
2022/03/08 09:02:49;;;;;;;;;;;20.40;38.10;;;;;;5048896;28;20015;-44
2022/03/08 09:05:15;;;;;;;;;;;20.40;38.10;;;;;;5037865;28;20020;-44
2022/03/08 09:07:42;;;;;;;;;;;20.40;38.10;;;;;;5045763;28;19974;-45
2022/03/08 09:10:09;;;;;;;;;;;20.40;38.10;;;;;;5044189;28;19931;-44
2022/03/08 09:12:36;;;;;;;;;;;20.40;38.10;;;;;;5045314;28;20320;-48
2022/03/08 09:15:04;;;;;;;;;;;20.40;38.20;;;;;;5060091;28;19925;-44
2022/03/08 09:17:31;;;;;;;;;;;20.40;38.10;;;;;;5040734;28;20365;-45
2022/03/08 09:19:57;;;;;;;;;;;20.40;38.20;;;;;;5045836;28;19927;-43
2022/03/08 09:22:24;;;;;;;;;;;20.40;38.20;;;;;;5039433;28;19956;-46
2022/03/08 09:24:51;;;;;;;;;;;20.40;38.20;;;;;;5043216;28;19975;-45
2022/03/08 09:27:19;;;;;;;;;;;20.40;38.30;;;;;;5066250;28;19947;-46
2022/03/08 09:29:45;;;;;;;;;;;20.40;38.30;;;;;;5044517;28;19920;-43
2022/03/08 09:32:14;;;;;;;;;;;20.40;38.30;;;;;;5047769;28;20243;-44
2022/03/08 09:34:40;;;;;;;;;;;20.50;38.30;;;;;;5044015;28;19960;-48
2022/03/08 09:37:08;;;;;;;;;;;20.40;38.30;;;;;;5054578;28;19931;-42
2022/03/08 09:39:35;;;;;;;;;;;20.50;38.30;;;;;;5059291;28;20065;-43
2022/03/08 09:42:02;;;;;;;;;;;20.40;38.30;;;;;;5043457;28;20007;-43
2022/03/08 09:44:29;;;;;;;;;;;20.50;38.40;;;;;;5046588;28;19920;-44
2022/03/08 09:46:56;;;;;;;;;;;20.40;38.30;;;;;;5044664;28;19928;-43
2022/03/08 09:49:24;;;;;;;;;;;20.40;38.30;;;;;;5044516;28;20147;-46
2022/03/08 09:51:51;;;;;;;;;;;20.50;38.40;;;;;;5047278;28;19995;-43
2022/03/08 09:54:18;;;;;;;;;;;20.40;38.40;;;;;;5048987;28;19920;-47
2022/03/08 09:56:45;;;;;;;;;;;20.50;38.50;;;;;;5046979;28;19924;-45
2022/03/08 09:59:14;;;;;;;;;;;20.50;38.50;;;;;;5064526;28;19932;-45
2022/03/08 10:01:41;;;;;;;;;;;20.50;38.50;;;;;;5045967;28;19929;-45
2022/03/08 10:04:08;;;;;;;;;;;20.50;38.50;;;;;;5066088;28;19936;-48
2022/03/08 10:06:40;;;;;;;;;;;20.50;38.60;;;;;;5044542;28;20423;-48
2022/03/08 10:09:10;;;;;;;;;;;20.50;38.60;;;;;;5041663;28;20337;-52
2022/03/08 10:11:37;;;;;;;;;;;20.50;38.60;;;;;;5046369;28;19960;-61
2022/03/08 10:14:04;;;;;;;;;;;20.50;38.40;;;;;;5063245;28;19988;-50
2022/03/08 10:16:41;;;;;;;;;;;20.50;38.10;;;;;;5041660;28;19955;-50
2022/03/08 10:19:09;;;;;;;;;;;20.50;37.70;;;;;;5047622;28;20007;-58
2022/03/08 10:21:35;;;;;;;;;;;20.50;37.40;;;;;;5039797;28;19974;-53
2022/03/08 10:24:08;;;;;;;;;;;20.50;37.20;;;;;;5054878;28;20377;-50
2022/03/08 10:26:43;;;;;;;;;;;20.40;36.90;;;;;;5043369;28;19952;-61
2022/03/08 10:29:09;;;;;;;;;;;20.40;36.70;;;;;;5057548;28;19920;-51
2022/03/08 10:31:36;;;;;;;;;;;20.40;36.60;;;;;;5048187;28;19924;-50
2022/03/08 10:34:04;;;;;;;;;;;20.40;36.50;;;;;;5037486;28;20415;-48
2022/03/08 10:36:31;;;;;;;;;;;20.40;36.40;;;;;;5041276;28;20350;-49
2022/03/08 10:39:13;;;;;;;;;;;20.40;36.30;;;;;;5040638;28;19925;-51
2022/03/08 10:41:46;;;;;;;;;;;20.40;36.20;;;;;;5038219;28;20257;-50
2022/03/08 10:44:14;;;;;;;;;;;20.30;36.10;;;;;;5059391;28;20366;-52
2022/03/08 10:46:41;;;;;;;;;;;20.30;36.00;;;;;;5041562;28;19973;-49
2022/03/08 10:49:11;;;;;;;;;;;20.40;36.00;;;;;;5054288;28;19947;-53
2022/03/08 10:51:40;;;;;;;;;;;20.30;35.80;;;;;;5046695;28;21647;-52
2022/03/08 10:54:11;;;;;;;;;;;20.30;35.70;;;;;;5058074;28;20390;-53
2022/03/08 10:56:43;;;;;;;;;;;20.30;35.60;;;;;;5045794;28;19976;-58
2022/03/08 10:59:11;;;;;;;;;;;20.30;35.60;;;;;;5045777;28;19927;-50
2022/03/08 11:01:38;;;;;;;;;;;20.30;35.60;;;;;;5042538;28;19924;-50
2022/03/08 11:04:05;;;;;;;;;;;20.30;35.60;;;;;;5039883;28;20035;-54
2022/03/08 11:06:35;;;;;;;;;;;20.30;35.50;;;;;;5045542;28;20276;-49
2022/03/08 11:09:02;;;;;;;;;;;20.30;35.50;;;;;;5042987;28;20015;-50
2022/03/08 11:11:29;;;;;;;;;;;20.20;35.40;;;;;;5037196;28;20215;-51
2022/03/08 11:13:57;;;;;;;;;;;20.30;35.40;;;;;;5041661;28;19933;-60
2022/03/08 11:16:26;;;;;;;;;;;20.20;35.30;;;;;;5059396;28;19921;-50
2022/03/08 11:18:53;;;;;;;;;;;20.20;35.30;;;;;;5058761;28;20294;-52
2022/03/08 11:21:20;;;;;;;;;;;20.20;35.10;;;;;;5043732;28;20412;-57
2022/03/08 11:23:46;;;;;;;;;;;20.20;35.10;;;;;;5059700;28;19924;-46
2022/03/08 11:26:13;;;;;;;;;;;20.20;35.10;;;;;;5047401;28;19941;-43
2022/03/08 11:28:40;;;;;;;;;;;20.20;35.40;;;;;;5054206;28;19920;-46
2022/03/08 11:31:09;;;;;;;;;;;20.20;35.70;;;;;;5044809;28;19956;-43
2022/03/08 11:33:39;;;;;;;;;;;20.20;35.80;;;;;;5073344;28;20311;-49
2022/03/08 11:36:07;;;;;;;;;;;20.20;35.90;;;;;;5042467;28;19928;-44
2022/03/08 11:38:34;;;;;;;;;;;20.20;36.00;;;;;;5040418;28;19971;-42
2022/03/08 11:41:01;;;;;;;;;;;20.20;36.10;;;;;;5047171;28;19921;-42
2022/03/08 11:43:36;;;;;;;;;;;20.20;36.20;;;;;;5042502;28;20023;-49
2022/03/08 11:46:11;;;;;;;;;;;20.30;36.30;;;;;;5050820;28;19932;-48
2022/03/08 11:48:42;;;;;;;;;;;20.20;36.30;;;;;;5065157;28;19949;-42
2022/03/08 11:51:10;;;;;;;;;;;20.20;36.40;;;;;;5065004;28;19925;-42
2022/03/08 11:53:39;;;;;;;;;;;20.20;36.40;;;;;;5046066;28;20007;-45
2022/03/08 11:56:06;;;;;;;;;;;20.20;36.40;;;;;;5048188;28;19928;-42
2022/03/08 11:58:42;;;;;;;;;;;20.20;36.50;;;;;;5058741;28;19925;-42
2022/03/08 12:01:08;;;;;;;;;;;20.30;36.60;;;;;;5044211;28;20007;-44
2022/03/08 12:03:42;;;;;;;;;;;20.30;36.70;;;;;;5038456;28;19932;-41
2022/03/08 12:06:09;;;;;;;;;;;20.30;36.70;;;;;;5048431;28;20361;-42
2022/03/08 12:08:45;;;;;;;;;;;20.30;36.70;;;;;;5042555;28;19924;-43
2022/03/08 12:11:29;;;;;;;;;;;20.30;36.70;;;;;;5062477;28;19969;-43
2022/03/08 12:14:00;;;;;;;;;;;20.30;36.80;;;;;;5049733;28;19927;-42
2022/03/08 12:16:27;;;;;;;;;;;20.30;36.90;;;;;;5054898;28;19977;-42
2022/03/08 12:18:56;;;;;;;;;;;20.30;37.00;;;;;;5047549;28;19921;-44
2022/03/08 12:21:29;;;;;;;;;;;20.30;37.00;;;;;;5048283;28;19935;-48
2022/03/08 12:23:57;;;;;;;;;;;20.30;37.10;;;;;;5060994;28;19944;-46
2022/03/08 12:26:24;;;;;;;;;;;20.40;37.20;;;;;;5051862;28;19920;-43
2022/03/08 12:29:07;;;;;;;;;;;20.40;37.30;;;;;;5062479;28;19932;-46
2022/03/08 12:31:34;;;;;;;;;;;20.40;37.20;;;;;;5051280;28;19920;-47
2022/03/08 12:34:02;;;;;;;;;;;20.40;37.30;;;;;;5065079;28;19924;-50
2022/03/08 12:36:29;;;;;;;;;;;20.40;37.30;;;;;;5046177;28;20152;-44
2022/03/08 12:38:59;;;;;;;;;;;20.40;37.40;;;;;;5044672;28;19967;-46
2022/03/08 12:41:26;;;;;;;;;;;20.40;37.40;;;;;;5046886;28;19928;-42
2022/03/08 12:43:57;;;;;;;;;;;20.40;37.40;;;;;;5049142;28;19939;-44
2022/03/08 12:46:24;;;;;;;;;;;20.40;37.40;;;;;;5057992;28;19978;-45
2022/03/08 12:48:52;;;;;;;;;;;20.50;37.60;;;;;;5041859;28;20310;-42
2022/03/08 12:51:20;;;;;;;;;;;20.40;37.50;;;;;;5042179;28;20008;-46
2022/03/08 12:53:49;;;;;;;;;;;20.40;37.50;;;;;;5044671;28;20035;-45
2022/03/08 12:56:16;;;;;;;;;;;20.50;37.70;;;;;;5046581;28;19932;-42
2022/03/08 12:58:43;;;;;;;;;;;20.40;37.60;;;;;;5045829;28;20325;-43
2022/03/08 13:01:10;;;;;;;;;;;20.50;37.70;;;;;;5044717;28;19976;-47
2022/03/08 13:03:37;;;;;;;;;;;20.50;37.70;;;;;;5048623;28;20407;-45
2022/03/08 13:06:04;;;;;;;;;;;20.50;37.70;;;;;;5043150;28;19935;-48
2022/03/08 13:08:33;;;;;;;;;;;20.50;37.70;;;;;;5039707;28;20002;-46
2022/03/08 13:11:00;;;;;;;;;;;20.50;37.80;;;;;;5043226;28;19946;-47
2022/03/08 13:13:27;;;;;;;;;;;20.50;37.80;;;;;;5062906;28;19935;-45
2022/03/08 13:15:54;;;;;;;;;;;20.50;37.80;;;;;;5046548;28;20204;-45
2022/03/08 13:18:21;;;;;;;;;;;20.50;37.90;;;;;;5042484;28;20116;-45
2022/03/08 13:20:48;;;;;;;;;;;20.60;37.90;;;;;;5049272;28;19943;-46
2022/03/08 13:23:17;;;;;;;;;;;20.50;37.90;;;;;;5066421;28;19928;-43
2022/03/08 13:25:46;;;;;;;;;;;20.50;37.90;;;;;;5045033;28;19921;-42
2022/03/08 13:28:14;;;;;;;;;;;20.50;37.90;;;;;;5046161;28;20020;-42
2022/03/08 13:30:41;;;;;;;;;;;20.60;38.00;;;;;;5045942;28;19924;-44
2022/03/08 13:33:32;;;;;;;;;;;20.50;37.90;;;;;;5043787;28;19947;-44
2022/03/08 13:35:59;;;;;;;;;;;20.50;37.90;;;;;;5049883;28;20392;-43
2022/03/08 13:38:26;;;;;;;;;;;20.50;37.90;;;;;;5044499;28;20294;-43
2022/03/08 13:40:55;;;;;;;;;;;20.60;38.10;;;;;;5064063;28;19951;-48
2022/03/08 13:43:22;;;;;;;;;;;20.60;38.10;;;;;;5049036;28;20249;-42
2022/03/08 13:45:48;;;;;;;;;;;20.60;38.10;;;;;;5046030;28;19920;-46
2022/03/08 13:48:17;;;;;;;;;;;20.60;38.10;;;;;;5039040;28;19966;-42
2022/03/08 13:50:45;;;;;;;;;;;20.60;38.10;;;;;;5048628;28;19921;-47
2022/03/08 13:53:12;;;;;;;;;;;20.60;38.10;;;;;;5046730;28;19927;-44
2022/03/08 13:55:39;;;;;;;;;;;20.60;38.10;;;;;;5047614;28;20015;-41
2022/03/08 13:58:08;;;;;;;;;;;20.60;38.10;;;;;;5065669;28;19951;-48
2022/03/08 14:00:35;;;;;;;;;;;20.60;38.20;;;;;;5064759;28;19924;-48
2022/03/08 14:03:02;;;;;;;;;;;20.60;38.10;;;;;;5047888;28;19942;-46
2022/03/08 14:05:29;;;;;;;;;;;20.60;38.10;;;;;;5065087;28;19921;-49
2022/03/08 14:07:59;;;;;;;;;;;20.60;38.10;;;;;;5042034;28;19921;-46
2022/03/08 14:10:26;;;;;;;;;;;20.60;38.10;;;;;;5068007;28;20191;-48
2022/03/08 14:12:53;;;;;;;;;;;20.60;38.10;;;;;;5047489;28;19924;-47
2022/03/08 14:15:21;;;;;;;;;;;20.60;38.10;;;;;;5052228;28;20580;-45
2022/03/08 14:17:49;;;;;;;;;;;20.60;38.10;;;;;;5042157;28;19920;-45